Wilson, KS (67490)

11:51 PM CDT on October 30, 2014 (GMT -0500)
Wilson | Change Station
CLOSE
Current Station
Personal Weather Station
Location: Wilson, KS
Elevation: 1689 ft
Nearby Weather Stations
Active Advisory: Freeze Warning

Elev 1689 ft 38.82 °N, 98.47 °W | Updated 26 seconds ago

Clear
Clear
46.5 °F
Feels Like 43 °F
N
6.2
Wind Variable Wind from NNE
Gusts 8.7 mph

Today
High -- | Low -- °F
--% Chance of Precip.
Yesterday
High -- | Low -- °F
Precip. -- in
7:58 AM 6:35 PM
Waxing Crescent, 51% visible
Pressure 30.34 in
Visibility 10.0 miles
Clouds Clear
Windchill 43 °F
Dew Point -22 °F
Humidity 5%
Rainfall 0.00 in
Snow Depth Not available.
UV 0 out of 12
Pollen 2.40 out of 12
Air Quality Not available.
Flu Activity Not available.
METAR KRSL 310353Z AUTO 01017G28KT 10SM CLR 10/01 A3034 RMK AO2 PK WND 01028/0349 SLP272 T01000011

More Conditions Fewer Conditions

Pressure 30.34 in
Visibility 10.0 miles
Clouds Clear
Windchill 43 °F
Dew Point -22 °F
Humidity 5%
Rainfall 0.00 in
Snow Depth Not available.
UV 0 out of 12
Pollen 2.40 out of 12
Air Quality Not available.
Flu Activity Not available.
METAR KRSL 310353Z AUTO 01017G28KT 10SM CLR 10/01 A3034 RMK AO2 PK WND 01028/0349 SLP272 T01000011

More Conditions Fewer Conditions

10-Day Weather Forecast

Almanac

Astronomy

Oct. 30, 2014 Rise Set
Actual Time
Civil Twilight
Nautical Twilight
Astronomical Twilight
Moon
Length of Visible Light
Length of Day
Tomorrow will be .
, % of the Moon is Illuminated

Today's Extremes

State Highs State Lows

Community

WunderPhotos

Upload Photos

1,766,567 photos uploaded!

WunderBlogs® & News

Nearby

Air Quality

  Air Quality AQ Index Pollutant
Not available.

Snow Depth

Station Depth Elevation

Earthquake Activity

City Distance Mag. Time & Date
Minimum magnitude displayed is 2.5.

Coastal Water Temperatures

Place Temperature

Nearby Weather Stations